createdAt,value
2023-02-06T00:01:47.333Z,4.87
2023-02-06T00:04:17.177Z,4.89
2023-02-06T00:06:51.467Z,4.88
2023-02-06T00:09:17.861Z,4.89
2023-02-06T00:11:44.346Z,4.93
2023-02-06T00:14:11.312Z,4.91
2023-02-06T00:16:37.679Z,4.91
2023-02-06T00:19:04.368Z,4.93
2023-02-06T00:21:30.878Z,4.97
2023-02-06T00:24:08.270Z,5.00
2023-02-06T00:26:34.686Z,4.98
2023-02-06T00:29:03.920Z,4.97
2023-02-06T00:31:30.328Z,4.96
2023-02-06T00:33:56.809Z,4.91
2023-02-06T00:36:27.291Z,4.90
2023-02-06T00:38:56.897Z,4.88
2023-02-06T00:41:31.258Z,4.89
2023-02-06T00:43:57.591Z,4.87
2023-02-06T00:46:24.159Z,4.86
2023-02-06T00:48:54.257Z,4.87
2023-02-06T00:51:23.639Z,4.88
2023-02-06T00:53:57.659Z,4.84
2023-02-06T00:56:24.014Z,4.85
2023-02-06T00:58:50.462Z,4.84
2023-02-06T01:03:57.710Z,4.85
2023-02-06T01:06:30.006Z,4.84
2023-02-06T01:08:56.432Z,4.82
2023-02-06T01:11:31.253Z,4.86
2023-02-06T01:13:57.980Z,4.87
2023-02-06T01:16:28.286Z,4.86
2023-02-06T01:18:57.874Z,4.88
2023-02-06T01:21:27.967Z,4.91
2023-02-06T01:23:54.851Z,4.92
2023-02-06T01:26:24.702Z,4.94
2023-02-06T01:28:55.550Z,4.90
2023-02-06T01:31:27.583Z,4.91
2023-02-06T01:33:59.510Z,4.93
2023-02-06T01:36:27.032Z,4.99
2023-02-06T01:38:53.584Z,5.01
2023-02-06T01:41:23.001Z,5.00
2023-02-06T01:44:16.128Z,5.01
2023-02-06T01:47:13.237Z,5.00
2023-02-06T01:49:47.166Z,4.98
2023-02-06T01:52:28.676Z,5.00
2023-02-06T01:55:02.247Z,5.03
2023-02-06T01:57:43.083Z,5.03
2023-02-06T02:00:10.760Z,5.04
2023-02-06T02:02:44.952Z,5.05
2023-02-06T02:05:13.561Z,5.06
2023-02-06T02:13:42.515Z,5.12
2023-02-06T02:16:28.491Z,5.11
2023-02-06T02:19:04.828Z,5.08
2023-02-06T02:21:52.922Z,5.05
2023-02-06T02:24:37.386Z,5.02
2023-02-06T02:27:14.593Z,5.01
2023-02-06T02:30:10.400Z,4.98
2023-02-06T02:33:02.392Z,4.98
2023-02-06T02:35:54.847Z,4.98
2023-02-06T02:38:31.968Z,4.99
2023-02-06T02:41:17.681Z,4.94
2023-02-06T02:44:19.238Z,4.93
2023-02-06T02:46:50.608Z,4.94
2023-02-06T02:49:20.610Z,4.94
2023-02-06T02:51:51.349Z,4.89
2023-02-06T02:54:20.800Z,4.87
2023-02-06T02:56:51.307Z,4.82
2023-02-06T02:59:27.778Z,4.76
2023-02-06T03:02:02.625Z,4.71
2023-02-06T03:04:37.197Z,4.73
2023-02-06T03:07:31.319Z,4.67
2023-02-06T03:10:05.855Z,4.65
2023-02-06T03:12:45.102Z,4.56
2023-02-06T03:15:16.643Z,4.54
2023-02-06T03:17:57.695Z,4.50
2023-02-06T03:20:25.413Z,4.43
2023-02-06T03:22:57.571Z,4.37
2023-02-06T03:25:47.725Z,4.34
2023-02-06T03:28:23.630Z,4.26
2023-02-06T03:30:55.096Z,4.25
2023-02-06T03:33:26.614Z,4.22
2023-02-06T03:35:55.175Z,4.18
2023-02-06T03:38:27.077Z,4.15
2023-02-06T03:40:59.652Z,4.12
2023-02-06T03:43:31.722Z,4.05
2023-02-06T03:46:02.983Z,3.95
2023-02-06T03:48:59.123Z,3.91
2023-02-06T03:51:35.390Z,3.90
2023-02-06T03:54:05.702Z,3.89
2023-02-06T03:56:47.626Z,3.90
2023-02-06T03:59:20.510Z,3.92
2023-02-06T04:02:00.443Z,3.91
2023-02-06T04:04:34.362Z,3.93
2023-02-06T04:07:12.748Z,3.96
2023-02-06T04:09:40.009Z,3.95
2023-02-06T04:12:15.532Z,3.97
2023-02-06T04:14:45.562Z,3.98
2023-02-06T04:17:21.112Z,3.98
2023-02-06T04:20:01.702Z,3.94
2023-02-06T04:25:14.801Z,3.98
2023-02-06T04:27:41.126Z,4.01
2023-02-06T04:30:08.521Z,4.05
2023-02-06T04:32:38.816Z,4.05
2023-02-06T04:35:05.631Z,4.00
2023-02-06T04:37:32.653Z,3.96
2023-02-06T04:40:02.144Z,3.92
2023-02-06T04:42:31.548Z,3.89
2023-02-06T04:45:04.324Z,3.93
2023-02-06T04:47:33.609Z,3.97
2023-02-06T04:50:00.004Z,3.97
2023-02-06T04:52:38.560Z,3.94
2023-02-06T04:55:11.169Z,3.95
2023-02-06T04:57:38.251Z,3.90
2023-02-06T05:00:07.654Z,3.90
2023-02-06T05:02:40.109Z,3.89
2023-02-06T05:05:08.438Z,3.92
2023-02-06T05:07:38.549Z,3.90
2023-02-06T05:10:05.123Z,3.91
2023-02-06T05:12:31.516Z,3.94
2023-02-06T05:17:41.389Z,3.91
2023-02-06T05:20:11.270Z,3.91
2023-02-06T05:22:37.912Z,3.89
2023-02-06T05:25:07.645Z,3.83
2023-02-06T05:27:34.082Z,3.83
2023-02-06T05:30:00.447Z,3.78
2023-02-06T05:32:32.542Z,3.80
2023-02-06T05:35:00.196Z,3.88
2023-02-06T05:37:29.120Z,3.91
2023-02-06T05:40:01.449Z,3.86
2023-02-06T05:42:27.858Z,3.87
2023-02-06T05:47:40.169Z,3.89
2023-02-06T05:50:06.804Z,3.91
2023-02-06T05:52:33.194Z,3.88
2023-02-06T05:55:12.472Z,3.86
2023-02-06T05:57:45.991Z,3.94
2023-02-06T06:00:13.416Z,3.98
2023-02-06T06:02:42.447Z,3.99
2023-02-06T06:05:16.151Z,3.99
2023-02-06T06:07:42.517Z,4.00
2023-02-06T06:10:18.346Z,4.00
2023-02-06T06:12:44.733Z,3.99
2023-02-06T06:17:54.788Z,3.99
2023-02-06T06:20:24.234Z,3.99
2023-02-06T06:22:50.683Z,4.00
2023-02-06T06:25:20.649Z,4.00
2023-02-06T06:27:50.203Z,3.99
2023-02-06T06:30:19.257Z,3.98
2023-02-06T06:32:46.062Z,4.02
2023-02-06T06:35:12.506Z,4.09
2023-02-06T06:37:38.845Z,4.09
2023-02-06T06:40:13.295Z,4.09
2023-02-06T06:42:39.824Z,4.10
2023-02-06T06:45:12.681Z,4.09
2023-02-06T06:47:39.027Z,4.11
2023-02-06T06:50:07.066Z,4.10
2023-02-06T06:52:33.851Z,4.15
2023-02-06T06:55:03.535Z,4.15
2023-02-06T06:57:33.146Z,4.20
2023-02-06T06:59:59.833Z,4.25
2023-02-06T07:02:29.350Z,4.25
2023-02-06T07:05:00.319Z,4.21
2023-02-06T07:07:30.171Z,4.20
2023-02-06T07:09:56.666Z,4.26
2023-02-06T07:12:27.576Z,4.29
2023-02-06T07:14:53.994Z,4.30
2023-02-06T07:17:20.450Z,4.25
2023-02-06T07:19:52.381Z,4.22
2023-02-06T07:22:19.757Z,4.26
2023-02-06T07:24:46.343Z,4.32
2023-02-06T07:27:21.573Z,4.38
2023-02-06T07:29:47.891Z,4.38
2023-02-06T07:32:17.969Z,4.38
2023-02-06T07:34:47.243Z,4.41
2023-02-06T07:37:13.907Z,4.41
2023-02-06T07:39:40.556Z,4.44
2023-02-06T07:42:09.714Z,4.41
2023-02-06T07:44:36.077Z,4.44
2023-02-06T07:47:02.914Z,4.47
2023-02-06T07:49:29.319Z,4.53
2023-02-06T07:51:55.715Z,4.62
2023-02-06T07:54:22.263Z,4.69
2023-02-06T07:56:48.988Z,4.71
2023-02-06T07:59:19.655Z,4.77
2023-02-06T08:01:46.068Z,4.81
2023-02-06T08:04:20.923Z,4.87
2023-02-06T08:06:47.374Z,4.82
2023-02-06T08:09:23.970Z,4.87
2023-02-06T08:11:50.385Z,4.94
2023-02-06T08:14:17.549Z,4.98
2023-02-06T08:16:44.207Z,5.03
2023-02-06T08:19:12.307Z,5.09
2023-02-06T08:21:41.120Z,5.14
2023-02-06T08:24:13.372Z,5.22
2023-02-06T08:26:39.990Z,5.25
2023-02-06T08:29:10.386Z,5.27
2023-02-06T08:31:41.523Z,5.37
2023-02-06T08:34:11.440Z,5.39
2023-02-06T08:36:43.443Z,5.53
2023-02-06T08:39:24.878Z,5.59
2023-02-06T08:41:52.273Z,5.59
2023-02-06T08:44:19.540Z,5.67
2023-02-06T08:46:47.738Z,5.72
2023-02-06T08:49:20.878Z,5.77
2023-02-06T08:51:50.334Z,5.81
2023-02-06T08:54:22.951Z,5.80
2023-02-06T08:56:52.783Z,5.84
2023-02-06T08:59:20.381Z,5.90
2023-02-06T09:01:49.975Z,6.05
2023-02-06T09:04:20.842Z,6.18
2023-02-06T09:06:52.062Z,6.22
2023-02-06T09:09:18.968Z,6.23
2023-02-06T09:11:45.335Z,6.29
2023-02-06T09:14:24.335Z,6.39
2023-02-06T09:19:58.635Z,6.44
2023-02-06T09:22:28.394Z,6.54
2023-02-06T09:24:55.730Z,6.59
2023-02-06T09:27:27.163Z,6.69
2023-02-06T09:29:53.524Z,6.82
2023-02-06T09:32:19.913Z,6.85
2023-02-06T09:34:51.489Z,6.88
2023-02-06T09:37:18.212Z,6.86
2023-02-06T09:39:46.936Z,6.94
2023-02-06T09:42:40.624Z,6.92
2023-02-06T09:45:22.315Z,6.98
2023-02-06T09:48:15.637Z,7.07
2023-02-06T09:50:44.856Z,7.15
2023-02-06T09:53:14.094Z,7.29
2023-02-06T09:55:55.250Z,7.18
2023-02-06T09:58:47.154Z,7.27
2023-02-06T10:01:42.151Z,7.22
2023-02-06T10:04:24.925Z,7.22
2023-02-06T10:07:03.101Z,7.13
2023-02-06T10:09:53.975Z,7.13
2023-02-06T10:15:56.285Z,7.16
2023-02-06T10:18:40.358Z,7.02
2023-02-06T10:21:32.360Z,7.03
2023-02-06T10:24:14.817Z,7.11
2023-02-06T10:26:47.846Z,7.11
2023-02-06T10:29:23.734Z,7.14
2023-02-06T10:32:20.993Z,7.24
2023-02-06T10:35:01.468Z,7.45
2023-02-06T10:38:07.729Z,7.63
2023-02-06T10:41:06.141Z,7.77
2023-02-06T10:43:59.415Z,7.87
2023-02-06T10:46:42.908Z,7.87
2023-02-06T10:49:46.966Z,7.73
2023-02-06T10:52:23.278Z,7.64
2023-02-06T10:54:59.962Z,7.65
2023-02-06T10:57:29.627Z,7.65
2023-02-06T11:00:03.166Z,7.55
2023-02-06T11:02:38.789Z,7.61
2023-02-06T11:05:10.137Z,7.66
2023-02-06T11:07:40.936Z,7.75
2023-02-06T11:10:08.453Z,7.95
2023-02-06T11:13:04.103Z,8.18
2023-02-06T11:15:56.249Z,8.28
2023-02-06T11:18:31.383Z,8.34
2023-02-06T11:20:58.443Z,8.57
2023-02-06T11:23:30.143Z,8.63
2023-02-06T11:26:22.572Z,8.41
2023-02-06T11:29:21.902Z,8.36
2023-02-06T11:32:25.593Z,8.58
2023-02-06T11:35:16.805Z,8.45
2023-02-06T11:37:43.278Z,8.45
2023-02-06T11:40:18.781Z,8.54
2023-02-06T11:42:49.381Z,8.83
2023-02-06T11:45:31.614Z,8.89
2023-02-06T11:48:04.387Z,8.94
2023-02-06T11:50:36.186Z,8.82
2023-02-06T11:56:29.333Z,8.72
2023-02-06T11:59:25.375Z,8.62
2023-02-06T12:01:51.793Z,8.47
2023-02-06T12:04:33.001Z,8.46
2023-02-06T12:10:21.704Z,8.44
2023-02-06T12:12:58.564Z,8.44
2023-02-06T12:15:48.418Z,8.46
2023-02-06T12:18:35.100Z,8.68
2023-02-06T12:21:14.658Z,8.82
2023-02-06T12:23:47.739Z,8.86
2023-02-06T12:26:21.106Z,8.98
2023-02-06T12:29:12.627Z,9.13
2023-02-06T12:34:55.571Z,8.94
2023-02-06T12:37:39.572Z,8.69
2023-02-06T12:40:18.230Z,8.63
2023-02-06T12:43:04.753Z,8.80
2023-02-06T12:45:46.856Z,9.04
2023-02-06T12:48:54.381Z,9.23
2023-02-06T12:51:31.110Z,9.42
2023-02-06T12:54:30.048Z,9.55
2023-02-06T12:57:31.555Z,9.37
2023-02-06T13:00:32.199Z,9.19
2023-02-06T13:03:46.254Z,8.83
2023-02-06T13:06:17.902Z,8.78
2023-02-06T13:08:50.443Z,8.99
2023-02-06T13:11:28.860Z,9.09
2023-02-06T13:14:09.708Z,9.06
2023-02-06T13:16:44.190Z,9.09
2023-02-06T13:19:53.857Z,9.17
2023-02-06T13:22:37.290Z,9.35
2023-02-06T13:25:26.305Z,9.38
2023-02-06T13:27:56.462Z,9.29
2023-02-06T13:30:29.404Z,9.15
2023-02-06T13:33:17.369Z,8.89
2023-02-06T13:36:04.567Z,8.72
2023-02-06T13:38:33.914Z,8.52
2023-02-06T13:41:12.698Z,8.48
2023-02-06T13:43:42.390Z,8.43
2023-02-06T13:46:17.291Z,8.45
2023-02-06T13:49:07.526Z,8.36
2023-02-06T13:52:09.693Z,8.42
2023-02-06T13:54:51.253Z,8.42
2023-02-06T13:57:42.946Z,8.50
2023-02-06T14:00:24.948Z,8.65
2023-02-06T14:02:58.877Z,8.93
2023-02-06T14:06:00.483Z,9.17
2023-02-06T14:08:52.870Z,8.87
2023-02-06T14:12:15.972Z,8.78
2023-02-06T14:15:12.777Z,8.71
2023-02-06T14:18:07.792Z,8.70
2023-02-06T14:21:00.965Z,8.62
2023-02-06T14:23:58.347Z,8.48
2023-02-06T14:26:33.102Z,8.41
2023-02-06T14:29:14.711Z,8.45
2023-02-06T14:32:05.701Z,8.51
2023-02-06T14:34:58.487Z,8.47
2023-02-06T14:37:24.750Z,8.42
2023-02-06T14:40:07.766Z,8.39
2023-02-06T14:42:47.813Z,8.35
2023-02-06T14:45:42.033Z,8.33
2023-02-06T14:48:29.059Z,8.33
2023-02-06T14:51:05.389Z,8.35
2023-02-06T14:53:48.266Z,8.34
2023-02-06T14:56:24.858Z,8.24
2023-02-06T14:58:51.352Z,8.21
2023-02-06T15:01:17.737Z,8.20
2023-02-06T15:03:54.728Z,8.09
2023-02-06T15:06:52.563Z,8.10
2023-02-06T15:09:25.596Z,8.03
2023-02-06T15:11:58.761Z,8.00
2023-02-06T15:14:38.788Z,7.94
2023-02-06T15:17:06.425Z,7.95
2023-02-06T15:19:37.990Z,7.89
2023-02-06T15:25:30.937Z,7.73
2023-02-06T15:28:06.717Z,7.75
2023-02-06T15:30:37.420Z,7.89
2023-02-06T15:33:10.540Z,7.94
2023-02-06T15:35:41.041Z,8.05
2023-02-06T15:38:19.749Z,8.10
2023-02-06T15:40:53.495Z,8.10
2023-02-06T15:43:25.366Z,8.11
2023-02-06T15:46:02.360Z,8.11
2023-02-06T15:48:44.907Z,8.06
2023-02-06T15:51:40.227Z,8.03
2023-02-06T15:54:28.446Z,8.02
2023-02-06T15:57:03.698Z,7.95
2023-02-06T15:59:34.141Z,7.85
2023-02-06T16:02:03.897Z,7.78
2023-02-06T16:04:36.380Z,7.68
2023-02-06T16:07:07.342Z,7.61
2023-02-06T16:09:42.808Z,7.53
2023-02-06T16:12:11.021Z,7.45
2023-02-06T16:15:00.809Z,7.36
2023-02-06T16:17:35.698Z,7.31
2023-02-06T16:20:05.695Z,7.25
2023-02-06T16:22:43.281Z,7.21
2023-02-06T16:25:33.443Z,7.16
2023-02-06T16:28:05.120Z,7.09
2023-02-06T16:30:39.856Z,7.06
2023-02-06T16:33:30.016Z,7.04
2023-02-06T16:35:56.403Z,7.03
2023-02-06T16:38:32.177Z,7.00
2023-02-06T16:40:59.529Z,6.99
2023-02-06T16:43:31.470Z,7.00
2023-02-06T16:46:02.127Z,7.00
2023-02-06T16:48:32.077Z,7.04
2023-02-06T16:51:01.373Z,7.08
2023-02-06T16:53:29.156Z,7.08
2023-02-06T16:56:02.202Z,7.10
2023-02-06T16:58:30.161Z,7.08
2023-02-06T17:00:58.652Z,7.07
2023-02-06T17:03:27.891Z,7.06
2023-02-06T17:05:54.733Z,7.08
2023-02-06T17:08:24.163Z,7.06
2023-02-06T17:10:50.876Z,7.00
2023-02-06T17:13:25.718Z,6.95
2023-02-06T17:15:53.505Z,6.89
2023-02-06T17:18:24.100Z,6.85
2023-02-06T17:20:56.640Z,6.80
2023-02-06T17:23:30.754Z,6.74
2023-02-06T17:25:59.843Z,6.71
2023-02-06T17:28:33.578Z,6.63
2023-02-06T17:31:02.890Z,6.57
2023-02-06T17:33:29.338Z,6.51
2023-02-06T17:36:07.995Z,6.42
2023-02-06T17:38:34.391Z,6.33
2023-02-06T17:41:01.057Z,6.27
2023-02-06T17:43:30.566Z,6.20
2023-02-06T17:46:04.574Z,6.12
2023-02-06T17:48:32.556Z,6.05
2023-02-06T17:51:06.343Z,5.97
2023-02-06T17:53:35.491Z,5.90
2023-02-06T17:56:15.921Z,5.84
2023-02-06T17:58:43.339Z,5.80
2023-02-06T18:01:22.132Z,5.77
2023-02-06T18:04:14.877Z,5.61
2023-02-06T18:06:41.217Z,5.51
2023-02-06T18:09:07.571Z,5.44
2023-02-06T18:11:37.056Z,5.38
2023-02-06T18:14:06.282Z,5.40
2023-02-06T18:16:32.915Z,5.38
2023-02-06T18:19:02.440Z,5.27
2023-02-06T18:21:31.534Z,5.18
2023-02-06T18:24:01.641Z,5.14
2023-02-06T18:26:35.551Z,5.06
2023-02-06T18:29:08.483Z,5.08
2023-02-06T18:31:37.924Z,5.03
2023-02-06T18:34:10.505Z,4.97
2023-02-06T18:36:40.034Z,4.91
2023-02-06T18:39:08.596Z,4.86
2023-02-06T18:41:56.622Z,4.79
2023-02-06T18:44:24.577Z,4.73
2023-02-06T18:46:58.248Z,4.71
2023-02-06T18:49:27.534Z,4.69
2023-02-06T18:51:53.875Z,4.63
2023-02-06T18:54:20.537Z,4.61
2023-02-06T18:56:50.028Z,4.56
2023-02-06T18:59:16.451Z,4.56
2023-02-06T19:01:46.045Z,4.52
2023-02-06T19:04:15.540Z,4.46
2023-02-06T19:06:46.629Z,4.43
2023-02-06T19:09:19.763Z,4.41
2023-02-06T19:11:52.961Z,4.39
2023-02-06T19:14:22.424Z,4.30
2023-02-06T19:19:35.665Z,4.15
2023-02-06T19:22:05.000Z,4.13
2023-02-06T19:24:31.619Z,4.04
2023-02-06T19:27:02.393Z,4.06
2023-02-06T19:29:35.534Z,4.10
2023-02-06T19:32:05.659Z,4.04
2023-02-06T19:34:37.262Z,3.98
2023-02-06T19:37:16.164Z,3.97
2023-02-06T19:39:46.394Z,3.91
2023-02-06T19:42:16.885Z,3.87
2023-02-06T19:44:43.631Z,3.79
2023-02-06T19:47:12.892Z,3.72
2023-02-06T19:49:43.462Z,3.68
2023-02-06T19:52:23.236Z,3.63
2023-02-06T19:54:52.174Z,3.62
2023-02-06T19:57:27.560Z,3.63
2023-02-06T19:59:58.494Z,3.63
2023-02-06T20:02:27.685Z,3.60
2023-02-06T20:04:54.000Z,3.52
2023-02-06T20:07:23.457Z,3.48
2023-02-06T20:09:55.362Z,3.53
2023-02-06T20:12:26.021Z,3.49
2023-02-06T20:14:55.812Z,3.50
2023-02-06T20:17:31.337Z,3.44
2023-02-06T20:19:59.858Z,3.33
2023-02-06T20:22:33.920Z,3.26
2023-02-06T20:25:00.320Z,3.23
2023-02-06T20:27:26.720Z,3.18
2023-02-06T20:32:39.571Z,3.09
2023-02-06T20:35:06.464Z,3.06
2023-02-06T20:37:32.830Z,3.07
2023-02-06T20:40:03.217Z,3.06
2023-02-06T20:42:34.270Z,3.03
2023-02-06T20:45:12.291Z,3.00
2023-02-06T20:47:38.857Z,2.93
2023-02-06T20:50:18.046Z,2.93
2023-02-06T20:52:46.789Z,2.84
2023-02-06T20:55:13.221Z,2.80
2023-02-06T20:57:39.822Z,2.78
2023-02-06T21:00:06.815Z,2.76
2023-02-06T21:02:37.058Z,2.73
2023-02-06T21:05:03.595Z,2.72
2023-02-06T21:07:30.283Z,2.68
2023-02-06T21:10:00.523Z,2.64
2023-02-06T21:12:29.730Z,2.62
2023-02-06T21:14:58.122Z,2.56
2023-02-06T21:17:25.863Z,2.53
2023-02-06T21:19:52.220Z,2.50
2023-02-06T21:22:18.702Z,2.43
2023-02-06T21:24:53.955Z,2.44
2023-02-06T21:27:20.359Z,2.48
2023-02-06T21:29:49.153Z,2.52
2023-02-06T21:32:18.776Z,2.44
2023-02-06T21:34:45.552Z,2.42
2023-02-06T21:37:20.816Z,2.39
2023-02-06T21:39:47.261Z,2.38
2023-02-06T21:42:26.078Z,2.33
2023-02-06T21:44:52.476Z,2.32
2023-02-06T21:47:20.918Z,2.30
2023-02-06T21:49:50.053Z,2.24
2023-02-06T21:52:16.488Z,2.20
2023-02-06T21:54:46.054Z,2.21
2023-02-06T21:57:15.327Z,2.19
2023-02-06T21:59:45.818Z,2.19
2023-02-06T22:02:14.719Z,2.18
2023-02-06T22:04:41.145Z,2.17
2023-02-06T22:07:11.222Z,2.14
2023-02-06T22:09:40.462Z,2.10
2023-02-06T22:12:07.443Z,2.00
2023-02-06T22:14:37.817Z,2.03
2023-02-06T22:17:04.331Z,2.02
2023-02-06T22:19:30.695Z,2.00
2023-02-06T22:22:06.563Z,2.00
2023-02-06T22:24:32.977Z,1.91
2023-02-06T22:27:05.365Z,1.92
2023-02-06T22:29:32.153Z,1.89
2023-02-06T22:31:58.643Z,1.89
2023-02-06T22:34:25.551Z,1.84
2023-02-06T22:36:54.330Z,1.84
2023-02-06T22:39:20.824Z,1.81
2023-02-06T22:41:54.294Z,1.78
2023-02-06T22:44:21.395Z,1.71
2023-02-06T22:46:51.515Z,1.67
2023-02-06T22:49:21.359Z,1.69
2023-02-06T22:51:47.925Z,1.68
2023-02-06T22:56:54.760Z,1.59
2023-02-06T22:59:24.082Z,1.60
2023-02-06T23:02:01.143Z,1.60
2023-02-06T23:04:36.175Z,1.57
2023-02-06T23:07:08.422Z,1.54
2023-02-06T23:09:37.119Z,1.50
2023-02-06T23:12:08.246Z,1.49
2023-02-06T23:14:38.211Z,1.43
2023-02-06T23:17:06.781Z,1.44
2023-02-06T23:19:35.601Z,1.42
2023-02-06T23:22:06.951Z,1.42
2023-02-06T23:24:36.669Z,1.45
2023-02-06T23:27:06.166Z,1.50
2023-02-06T23:29:33.650Z,1.51
2023-02-06T23:32:06.911Z,1.47
2023-02-06T23:34:33.316Z,1.46
2023-02-06T23:37:04.742Z,1.44
2023-02-06T23:39:31.124Z,1.45
2023-02-06T23:41:57.491Z,1.43
2023-02-06T23:44:26.362Z,1.35
2023-02-06T23:46:55.818Z,1.32
2023-02-06T23:49:22.177Z,1.27
2023-02-06T23:51:51.582Z,1.22
2023-02-06T23:54:20.820Z,1.21
2023-02-06T23:56:47.198Z,1.21
2023-02-06T23:59:22.864Z,1.20
